createdAt,value
2022-09-28T00:01:16.877Z,20.17
2022-09-28T00:03:44.543Z,19.70
2022-09-28T00:06:13.607Z,20.90
2022-09-28T00:08:40.896Z,21.03
2022-09-28T00:11:11.403Z,20.60
2022-09-28T00:13:38.646Z,20.00
2022-09-28T00:16:11.045Z,18.30
2022-09-28T00:18:38.295Z,17.70
2022-09-28T00:21:32.697Z,16.60
2022-09-28T00:24:14.981Z,14.73
2022-09-28T00:26:56.464Z,14.10
2022-09-28T00:29:29.505Z,12.60
2022-09-28T00:32:03.237Z,13.20
2022-09-28T00:34:46.015Z,12.60
2022-09-28T00:37:14.071Z,11.10
2022-09-28T00:39:42.078Z,12.20
2022-09-28T00:42:21.034Z,10.00
2022-09-28T00:44:52.237Z,10.30
2022-09-28T00:47:49.642Z,9.43
2022-09-28T00:50:33.794Z,8.53
2022-09-28T00:53:21.526Z,7.20
2022-09-28T00:55:58.286Z,6.10
2022-09-28T00:58:29.353Z,5.60
2022-09-28T01:00:58.205Z,5.83
2022-09-28T01:03:26.680Z,6.27
2022-09-28T01:05:55.182Z,5.70
2022-09-28T01:08:24.652Z,5.90
2022-09-28T01:10:51.900Z,5.40
2022-09-28T01:13:20.361Z,5.37
2022-09-28T01:15:56.651Z,5.10
2022-09-28T01:18:34.543Z,5.67
2022-09-28T01:21:11.232Z,5.37
2022-09-28T01:23:50.151Z,5.60
2022-09-28T01:26:44.141Z,5.23
2022-09-28T01:29:18.470Z,6.00
2022-09-28T01:32:14.149Z,5.67
2022-09-28T01:35:06.975Z,5.90
2022-09-28T01:37:41.971Z,5.63
2022-09-28T01:40:12.171Z,5.63
2022-09-28T01:42:42.524Z,5.47
2022-09-28T01:45:43.491Z,5.40
2022-09-28T01:48:14.021Z,5.53
2022-09-28T01:50:43.019Z,5.40
2022-09-28T01:53:25.618Z,5.60
2022-09-28T01:55:57.185Z,5.47
2022-09-28T01:58:35.760Z,5.63
2022-09-28T02:01:25.813Z,5.60
2022-09-28T02:04:16.339Z,5.40
2022-09-28T02:07:07.979Z,5.70
2022-09-28T02:09:49.474Z,5.63
2022-09-28T02:12:25.649Z,4.90
2022-09-28T02:14:59.063Z,4.50
2022-09-28T02:17:25.916Z,4.40
2022-09-28T02:19:53.090Z,3.93
2022-09-28T02:22:33.560Z,3.80
2022-09-28T02:25:20.570Z,4.47
2022-09-28T02:28:11.483Z,4.80
2022-09-28T02:30:40.138Z,4.63
2022-09-28T02:33:24.987Z,4.50
2022-09-28T02:35:52.455Z,4.57
2022-09-28T02:38:19.248Z,5.07
2022-09-28T02:41:11.118Z,5.90
2022-09-28T02:43:46.775Z,5.80
2022-09-28T02:46:34.837Z,5.83
2022-09-28T02:49:24.208Z,5.63
2022-09-28T02:52:19.286Z,5.60
2022-09-28T02:55:23.506Z,5.33
2022-09-28T02:58:18.322Z,5.80
2022-09-28T03:00:51.664Z,5.73
2022-09-28T03:03:25.485Z,5.53
2022-09-28T03:06:07.786Z,5.43
2022-09-28T03:08:45.031Z,5.60
2022-09-28T03:11:20.781Z,5.37
2022-09-28T03:13:48.432Z,5.10
2022-09-28T03:16:18.339Z,5.03
2022-09-28T03:18:45.806Z,5.23
2022-09-28T03:21:13.965Z,5.17
2022-09-28T03:23:41.526Z,5.53
2022-09-28T03:26:11.060Z,5.30
2022-09-28T03:28:37.860Z,5.30
2022-09-28T03:31:04.850Z,5.33
2022-09-28T03:33:31.858Z,5.30
2022-09-28T03:35:58.962Z,4.93
2022-09-28T03:38:25.760Z,5.60
2022-09-28T03:41:00.269Z,5.37
2022-09-28T03:43:28.232Z,5.57
2022-09-28T03:45:57.011Z,5.90
2022-09-28T03:48:32.875Z,6.07
2022-09-28T03:51:02.335Z,5.60
2022-09-28T03:53:32.545Z,5.80
2022-09-28T03:56:05.120Z,6.87
2022-09-28T03:58:32.139Z,7.20
2022-09-28T04:01:07.219Z,7.37
2022-09-28T04:03:34.314Z,8.03
2022-09-28T04:06:02.750Z,8.10
2022-09-28T04:08:29.658Z,8.50
2022-09-28T04:11:00.732Z,10.30
2022-09-28T04:13:29.331Z,10.97
2022-09-28T04:15:58.834Z,11.43
2022-09-28T04:18:26.603Z,13.53
2022-09-28T04:21:03.648Z,13.23
2022-09-28T04:23:30.911Z,14.50
2022-09-28T04:25:58.253Z,15.10
2022-09-28T04:28:44.023Z,14.83
2022-09-28T04:31:16.828Z,14.87
2022-09-28T04:36:27.599Z,16.30
2022-09-28T04:38:54.669Z,16.53
2022-09-28T04:41:22.502Z,16.03
2022-09-28T04:43:50.294Z,16.50
2022-09-28T04:46:17.448Z,15.70
2022-09-28T04:48:44.603Z,16.57
2022-09-28T04:51:11.545Z,16.93
2022-09-28T04:53:38.478Z,16.87
2022-09-28T04:56:11.805Z,16.73
2022-09-28T04:58:39.060Z,16.77
2022-09-28T05:01:09.624Z,16.73
2022-09-28T05:03:36.534Z,16.13
2022-09-28T05:06:03.966Z,16.70
2022-09-28T05:08:35.445Z,17.80
2022-09-28T05:11:09.744Z,17.00
2022-09-28T05:16:35.909Z,17.30
2022-09-28T05:19:02.819Z,18.17
2022-09-28T05:21:30.902Z,16.73
2022-09-28T05:24:07.479Z,17.03
2022-09-28T05:26:37.744Z,16.60
2022-09-28T05:29:32.023Z,15.93
2022-09-28T05:32:01.767Z,16.23
2022-09-28T05:34:29.349Z,16.33
2022-09-28T05:36:56.155Z,16.03
2022-09-28T05:39:25.616Z,15.27
2022-09-28T05:41:52.492Z,15.33
2022-09-28T05:44:19.553Z,17.17
2022-09-28T05:46:46.486Z,20.10
2022-09-28T05:52:25.268Z,16.77
2022-09-28T05:54:52.078Z,13.90
2022-09-28T05:57:19.369Z,14.17
2022-09-28T05:59:52.443Z,13.70
2022-09-28T06:02:19.386Z,14.40
2022-09-28T06:04:48.313Z,14.03
2022-09-28T06:07:15.448Z,13.57
2022-09-28T06:09:42.211Z,13.33
2022-09-28T06:12:09.318Z,14.03
2022-09-28T06:14:36.167Z,14.30
2022-09-28T06:17:03.112Z,14.50
2022-09-28T06:19:30.226Z,14.30
2022-09-28T06:21:59.262Z,14.40
2022-09-28T06:24:29.955Z,15.17
2022-09-28T06:26:56.753Z,14.30
2022-09-28T06:29:24.252Z,14.23
2022-09-28T06:31:51.579Z,14.43
2022-09-28T06:34:19.115Z,14.27
2022-09-28T06:36:46.034Z,13.03
2022-09-28T06:39:19.355Z,13.30
2022-09-28T06:41:46.310Z,13.07
2022-09-28T06:44:14.044Z,13.23
2022-09-28T06:46:41.185Z,13.10
2022-09-28T06:49:09.634Z,12.63
2022-09-28T06:51:37.745Z,12.80
2022-09-28T06:54:04.626Z,12.77
2022-09-28T06:56:33.097Z,13.13
2022-09-28T06:59:00.021Z,12.73
2022-09-28T07:01:26.903Z,12.23
2022-09-28T07:03:55.489Z,12.90
2022-09-28T07:06:24.219Z,11.80
2022-09-28T07:09:01.699Z,12.00
2022-09-28T07:11:41.744Z,11.20
2022-09-28T07:14:22.401Z,11.13
2022-09-28T07:17:13.285Z,12.50
2022-09-28T07:19:41.099Z,13.20
2022-09-28T07:22:08.039Z,13.10
2022-09-28T07:24:34.892Z,13.13
2022-09-28T07:27:05.628Z,12.17
2022-09-28T07:29:32.427Z,12.43
2022-09-28T07:31:59.857Z,10.93
2022-09-28T07:34:26.777Z,12.07
2022-09-28T07:37:05.922Z,11.07
2022-09-28T07:39:52.799Z,10.53
2022-09-28T07:42:19.608Z,10.43
2022-09-28T07:44:46.724Z,9.87
2022-09-28T07:47:14.067Z,11.67
2022-09-28T07:49:40.928Z,11.67
2022-09-28T07:52:11.280Z,11.47
2022-09-28T07:54:39.833Z,13.10
2022-09-28T07:57:07.248Z,11.97
2022-09-28T07:59:34.220Z,11.57
2022-09-28T08:02:01.087Z,12.03
2022-09-28T08:04:28.399Z,11.80
2022-09-28T08:06:55.173Z,11.80
2022-09-28T08:09:22.005Z,11.30
2022-09-28T08:12:01.645Z,11.07
2022-09-28T08:14:28.614Z,10.23
2022-09-28T08:16:58.565Z,9.90
2022-09-28T08:19:25.356Z,9.17
2022-09-28T08:21:52.156Z,9.00
2022-09-28T08:24:19.248Z,8.40
2022-09-28T08:26:47.452Z,8.50
2022-09-28T08:29:15.377Z,8.13
2022-09-28T08:31:42.451Z,8.10
2022-09-28T08:34:15.150Z,7.50
2022-09-28T08:36:41.969Z,7.17
2022-09-28T08:39:14.964Z,7.53
2022-09-28T08:42:09.023Z,7.33
2022-09-28T08:48:12.211Z,7.33
2022-09-28T08:51:07.334Z,6.33
2022-09-28T08:54:24.722Z,6.83
2022-09-28T08:57:12.650Z,6.87
2022-09-28T08:59:46.904Z,6.40
2022-09-28T09:02:20.383Z,6.00
2022-09-28T09:04:47.752Z,5.50
2022-09-28T09:07:26.193Z,5.27
2022-09-28T09:10:15.643Z,5.40
2022-09-28T09:13:03.184Z,5.80
2022-09-28T09:15:47.903Z,5.07
2022-09-28T09:18:32.745Z,5.10
2022-09-28T09:21:35.012Z,4.90
2022-09-28T09:24:21.515Z,4.37
2022-09-28T09:26:55.585Z,4.27
2022-09-28T09:29:47.759Z,4.20
2022-09-28T09:32:31.821Z,4.37
2022-09-28T09:35:16.516Z,3.90
2022-09-28T09:38:06.523Z,4.00
2022-09-28T09:41:06.020Z,3.87
2022-09-28T09:43:32.869Z,3.83
2022-09-28T09:46:30.791Z,3.40
2022-09-28T09:49:21.778Z,3.43
2022-09-28T09:51:58.269Z,3.67
2022-09-28T09:54:37.954Z,3.40
2022-09-28T09:57:25.629Z,3.47
2022-09-28T09:59:52.612Z,2.93
2022-09-28T10:02:35.593Z,2.80
2022-09-28T10:05:15.323Z,2.70
2022-09-28T10:07:59.189Z,2.50
2022-09-28T10:10:40.921Z,2.57
2022-09-28T10:13:09.309Z,2.57
2022-09-28T10:15:36.515Z,2.73
2022-09-28T10:18:10.192Z,2.73
2022-09-28T10:20:42.794Z,2.73
2022-09-28T10:23:27.175Z,2.73
2022-09-28T10:26:07.364Z,2.67
2022-09-28T10:28:45.033Z,2.50
2022-09-28T10:31:36.869Z,2.40
2022-09-28T10:34:05.070Z,2.83
2022-09-28T10:36:38.403Z,2.50
2022-09-28T10:39:06.469Z,2.30
2022-09-28T10:41:33.341Z,2.27
2022-09-28T10:44:06.693Z,2.50
2022-09-28T10:46:35.180Z,2.20
2022-09-28T10:49:17.436Z,2.17
2022-09-28T10:51:50.108Z,1.97
2022-09-28T10:54:20.016Z,2.03
2022-09-28T10:56:47.869Z,2.10
2022-09-28T10:59:29.789Z,1.90
2022-09-28T11:02:12.817Z,1.80
2022-09-28T11:04:42.378Z,1.60
2022-09-28T11:07:20.230Z,1.70
2022-09-28T11:09:49.465Z,1.47
2022-09-28T11:12:45.803Z,1.70
2022-09-28T11:15:22.117Z,1.50
2022-09-28T11:17:48.950Z,1.80
2022-09-28T11:20:27.817Z,1.40
2022-09-28T11:23:00.629Z,1.70
2022-09-28T11:25:30.332Z,1.60
2022-09-28T11:28:19.161Z,1.70
2022-09-28T11:30:53.489Z,1.40
2022-09-28T11:33:41.387Z,1.30
2022-09-28T11:36:14.474Z,1.20
2022-09-28T11:39:00.163Z,1.23
2022-09-28T11:41:45.782Z,1.40
2022-09-28T11:44:18.504Z,1.47
2022-09-28T11:47:04.251Z,1.63
2022-09-28T11:49:57.465Z,1.50
2022-09-28T11:52:36.492Z,1.57
2022-09-28T11:55:07.321Z,1.60
2022-09-28T11:57:40.912Z,1.70
2022-09-28T12:00:24.934Z,1.43
2022-09-28T12:03:01.847Z,1.63
2022-09-28T12:05:33.691Z,1.70
2022-09-28T12:08:09.771Z,1.40
2022-09-28T12:10:45.572Z,1.53
2022-09-28T12:13:18.875Z,1.60
2022-09-28T12:18:55.676Z,1.60
2022-09-28T12:21:40.799Z,1.83
2022-09-28T12:24:26.158Z,1.60
2022-09-28T12:26:59.017Z,1.73
2022-09-28T12:29:31.909Z,1.80
2022-09-28T12:32:26.866Z,1.77
2022-09-28T12:34:53.919Z,1.80
2022-09-28T12:37:36.179Z,1.70
2022-09-28T12:40:22.344Z,1.80
2022-09-28T12:43:08.172Z,1.60
2022-09-28T12:46:06.701Z,1.40
2022-09-28T12:49:36.755Z,1.27
2022-09-28T12:51:55.217Z,1.50
2022-09-28T12:54:46.664Z,1.40
2022-09-28T12:57:27.105Z,2.07
2022-09-28T13:00:15.938Z,1.70
2022-09-28T13:03:09.996Z,1.70
2022-09-28T13:06:00.692Z,1.33
2022-09-28T13:08:45.603Z,1.57
2022-09-28T13:11:18.492Z,1.60
2022-09-28T13:13:54.424Z,1.60
2022-09-28T13:16:50.182Z,1.60
2022-09-28T13:19:24.152Z,1.80
2022-09-28T13:22:02.328Z,1.73
2022-09-28T13:24:33.937Z,1.80
2022-09-28T13:27:13.967Z,1.70
2022-09-28T13:29:41.970Z,1.80
2022-09-28T13:32:12.531Z,2.00
2022-09-28T13:34:39.850Z,1.80
2022-09-28T13:37:22.051Z,1.60
2022-09-28T13:39:52.827Z,1.80
2022-09-28T13:42:52.852Z,1.60
2022-09-28T13:45:22.715Z,1.80
2022-09-28T13:48:17.004Z,1.80
2022-09-28T13:51:11.125Z,1.60
2022-09-28T13:53:56.005Z,1.73
2022-09-28T13:56:44.849Z,1.73
2022-09-28T13:59:29.828Z,1.50
2022-09-28T14:02:06.795Z,1.73
2022-09-28T14:04:54.832Z,1.70
2022-09-28T14:07:29.622Z,1.43
2022-09-28T14:10:21.088Z,1.57
2022-09-28T14:12:50.295Z,1.50
2022-09-28T14:15:41.957Z,1.70
2022-09-28T14:18:16.922Z,1.60
2022-09-28T14:21:09.972Z,1.70
2022-09-28T14:23:39.738Z,1.60
2022-09-28T14:26:41.711Z,1.57
2022-09-28T14:29:28.493Z,2.00
2022-09-28T14:31:58.269Z,1.90
2022-09-28T14:34:39.478Z,1.97
2022-09-28T14:37:47.176Z,2.03
2022-09-28T14:40:48.642Z,3.57
2022-09-28T14:43:24.978Z,2.07
2022-09-28T14:46:11.927Z,2.07
2022-09-28T14:48:50.877Z,1.87
2022-09-28T14:51:26.801Z,2.00
2022-09-28T14:54:02.442Z,1.90
2022-09-28T14:56:38.166Z,2.00
2022-09-28T14:59:07.235Z,2.03
2022-09-28T15:01:36.265Z,2.00
2022-09-28T15:04:07.090Z,2.30
2022-09-28T15:06:51.359Z,1.90
2022-09-28T15:09:32.060Z,2.20
2022-09-28T15:12:04.065Z,3.00
2022-09-28T15:14:33.461Z,2.10
2022-09-28T15:17:02.909Z,2.13
2022-09-28T15:20:01.138Z,1.87
2022-09-28T15:22:29.176Z,1.77
2022-09-28T15:25:04.938Z,2.80
2022-09-28T15:27:39.044Z,2.30
2022-09-28T15:30:47.624Z,2.37
2022-09-28T15:33:46.859Z,2.00
2022-09-28T15:36:19.516Z,2.20
2022-09-28T15:39:00.994Z,2.67
2022-09-28T15:41:29.019Z,2.33
2022-09-28T15:44:10.690Z,2.57
2022-09-28T15:46:42.582Z,2.60
2022-09-28T15:49:28.995Z,2.80
2022-09-28T15:51:56.724Z,2.53
2022-09-28T15:54:28.161Z,2.50
2022-09-28T15:57:01.944Z,2.70
2022-09-28T15:59:34.851Z,2.90
2022-09-28T16:02:17.400Z,2.93
2022-09-28T16:04:50.408Z,2.80
2022-09-28T16:07:21.261Z,3.10
2022-09-28T16:10:13.947Z,2.67
2022-09-28T16:12:42.563Z,2.87
2022-09-28T16:15:18.332Z,2.80
2022-09-28T16:17:51.111Z,3.23
2022-09-28T16:20:21.026Z,3.37
2022-09-28T16:22:50.612Z,3.17
2022-09-28T16:25:24.524Z,3.13
2022-09-28T16:27:53.937Z,3.33
2022-09-28T16:30:31.543Z,3.37
2022-09-28T16:33:26.137Z,3.40
2022-09-28T16:35:53.287Z,3.20
2022-09-28T16:38:26.626Z,3.73
2022-09-28T16:40:54.125Z,3.50
2022-09-28T16:43:29.159Z,3.80
2022-09-28T16:46:01.146Z,4.07
2022-09-28T16:48:30.688Z,4.10
2022-09-28T16:50:58.808Z,4.27
2022-09-28T16:53:51.823Z,4.20
2022-09-28T16:56:19.006Z,4.10
2022-09-28T16:58:48.185Z,4.27
2022-09-28T17:01:15.516Z,4.37
2022-09-28T17:03:46.930Z,4.40
2022-09-28T17:06:16.089Z,4.10
2022-09-28T17:08:43.451Z,4.30
2022-09-28T17:11:20.433Z,3.87
2022-09-28T17:13:52.154Z,4.30
2022-09-28T17:16:37.089Z,4.80
2022-09-28T17:19:21.179Z,4.30
2022-09-28T17:21:49.257Z,4.23
2022-09-28T17:24:23.799Z,4.40
2022-09-28T17:26:52.035Z,4.53
2022-09-28T17:29:22.293Z,4.40
2022-09-28T17:31:49.288Z,5.33
2022-09-28T17:34:16.928Z,5.17
2022-09-28T17:36:52.809Z,5.30
2022-09-28T17:39:20.040Z,5.20
2022-09-28T17:41:47.147Z,4.93
2022-09-28T17:44:16.353Z,4.90
2022-09-28T17:46:49.762Z,5.80
2022-09-28T17:49:17.350Z,5.40
2022-09-28T17:51:44.436Z,5.27
2022-09-28T17:54:13.631Z,5.53
2022-09-28T17:56:50.424Z,5.50
2022-09-28T17:59:19.159Z,5.43
2022-09-28T18:02:02.003Z,5.50
2022-09-28T18:07:48.011Z,6.10
2022-09-28T18:10:22.591Z,6.47
2022-09-28T18:12:50.582Z,5.77
2022-09-28T18:15:19.074Z,5.87
2022-09-28T18:17:46.291Z,5.33
2022-09-28T18:20:13.815Z,5.93
2022-09-28T18:22:41.073Z,8.20
2022-09-28T18:25:08.617Z,6.80
2022-09-28T18:27:39.236Z,6.63
2022-09-28T18:30:07.141Z,6.83
2022-09-28T18:32:37.267Z,7.00
2022-09-28T18:35:12.082Z,6.77
2022-09-28T18:37:40.117Z,7.40
2022-09-28T18:40:09.539Z,7.37
2022-09-28T18:42:36.704Z,6.97
2022-09-28T18:48:12.640Z,6.43
2022-09-28T18:50:57.819Z,6.87
2022-09-28T18:53:25.813Z,7.10
2022-09-28T18:55:52.991Z,7.30
2022-09-28T18:58:20.305Z,6.20
2022-09-28T19:00:47.567Z,5.93
2022-09-28T19:03:18.589Z,5.83
2022-09-28T19:05:46.316Z,5.77
2022-09-28T19:08:13.811Z,6.00
2022-09-28T19:10:40.892Z,5.77
2022-09-28T19:13:07.878Z,5.60
2022-09-28T19:15:38.306Z,5.40
2022-09-28T19:18:05.487Z,5.67
2022-09-28T19:20:33.400Z,5.63
2022-09-28T19:23:00.519Z,5.07
2022-09-28T19:25:27.396Z,5.47
2022-09-28T19:27:54.936Z,5.10
2022-09-28T19:30:25.093Z,4.77
2022-09-28T19:32:52.677Z,4.53
2022-09-28T19:35:20.013Z,4.57
2022-09-28T19:37:47.077Z,4.43
2022-09-28T19:40:14.124Z,5.20
2022-09-28T19:42:41.228Z,5.10
2022-09-28T19:45:08.749Z,4.30
2022-09-28T19:47:35.896Z,6.63
2022-09-28T19:50:03.600Z,9.90
2022-09-28T19:52:30.495Z,4.77
2022-09-28T19:55:00.609Z,4.30
2022-09-28T19:57:30.543Z,3.93
2022-09-28T20:00:02.865Z,4.10
2022-09-28T20:02:30.714Z,4.37
2022-09-28T20:04:57.544Z,4.00
2022-09-28T20:07:24.455Z,4.10
2022-09-28T20:09:51.724Z,4.33
2022-09-28T20:12:18.761Z,4.37
2022-09-28T20:14:45.565Z,4.90
2022-09-28T20:17:12.330Z,4.77
2022-09-28T20:19:39.391Z,4.70
2022-09-28T20:22:06.391Z,5.20
2022-09-28T20:24:33.256Z,4.97
2022-09-28T20:27:01.596Z,5.00
2022-09-28T20:29:28.926Z,5.30
2022-09-28T20:31:56.882Z,5.37
2022-09-28T20:34:23.784Z,5.70
2022-09-28T20:36:58.449Z,6.17
2022-09-28T20:39:25.351Z,5.77
2022-09-28T20:41:52.144Z,6.27
2022-09-28T20:44:19.273Z,6.50
2022-09-28T20:46:52.933Z,6.47
2022-09-28T20:49:19.883Z,6.63
2022-09-28T20:51:46.926Z,7.40
2022-09-28T20:54:13.809Z,7.67
2022-09-28T20:56:40.835Z,8.40
2022-09-28T20:59:10.116Z,9.17
2022-09-28T21:01:37.655Z,12.17
2022-09-28T21:04:06.622Z,9.60
2022-09-28T21:06:41.666Z,9.03
2022-09-28T21:09:10.023Z,9.00
2022-09-28T21:11:37.677Z,8.53
2022-09-28T21:14:06.802Z,8.07
2022-09-28T21:16:35.237Z,8.63
2022-09-28T21:19:02.475Z,9.10
2022-09-28T21:21:29.388Z,8.63
2022-09-28T21:23:57.804Z,8.80
2022-09-28T21:26:32.264Z,8.83
2022-09-28T21:29:00.562Z,9.17
2022-09-28T21:31:32.721Z,9.33
2022-09-28T21:33:59.720Z,9.00
2022-09-28T21:36:26.593Z,9.97
2022-09-28T21:38:55.184Z,9.00
2022-09-28T21:41:22.508Z,9.00
2022-09-28T21:43:49.403Z,9.43
2022-09-28T21:46:17.641Z,9.40
2022-09-28T21:48:44.706Z,9.80
2022-09-28T21:51:14.379Z,9.50
2022-09-28T21:53:41.252Z,9.13
2022-09-28T21:56:10.956Z,10.10
2022-09-28T21:58:38.437Z,10.90
2022-09-28T22:01:19.882Z,10.73
2022-09-28T22:03:49.012Z,11.20
2022-09-28T22:06:18.364Z,11.90
2022-09-28T22:08:46.834Z,11.77
2022-09-28T22:11:23.092Z,12.43
2022-09-28T22:13:58.510Z,12.40
2022-09-28T22:16:28.269Z,12.63
2022-09-28T22:18:55.233Z,14.47
2022-09-28T22:21:28.388Z,14.63
2022-09-28T22:24:00.821Z,14.37
2022-09-28T22:26:29.242Z,14.33
2022-09-28T22:28:58.795Z,14.20
2022-09-28T22:31:28.049Z,14.47
2022-09-28T22:33:55.508Z,16.47
2022-09-28T22:36:22.806Z,15.70
2022-09-28T22:38:49.745Z,16.80
2022-09-28T22:41:20.953Z,16.77
2022-09-28T22:43:53.496Z,17.23
2022-09-28T22:46:26.547Z,16.07
2022-09-28T22:48:56.137Z,13.73
2022-09-28T22:51:25.509Z,11.47
2022-09-28T22:53:52.426Z,12.13
2022-09-28T22:56:19.522Z,10.90
2022-09-28T22:58:46.769Z,11.90
2022-09-28T23:01:22.115Z,11.10
2022-09-28T23:03:50.383Z,12.00
2022-09-28T23:06:19.526Z,11.83
2022-09-28T23:08:57.881Z,12.30
2022-09-28T23:11:24.906Z,12.47
2022-09-28T23:13:53.561Z,11.33
2022-09-28T23:16:20.897Z,12.10
2022-09-28T23:18:49.245Z,12.07
2022-09-28T23:21:18.923Z,12.37
2022-09-28T23:23:47.246Z,11.90
2022-09-28T23:26:16.594Z,12.60
2022-09-28T23:28:43.877Z,12.17
2022-09-28T23:31:16.489Z,12.93
2022-09-28T23:33:43.330Z,13.07
2022-09-28T23:36:10.500Z,12.50
2022-09-28T23:38:37.535Z,12.77
2022-09-28T23:41:04.741Z,12.33
2022-09-28T23:43:31.636Z,11.97
2022-09-28T23:45:58.451Z,12.83
2022-09-28T23:48:25.278Z,12.80
2022-09-28T23:50:52.085Z,11.67
2022-09-28T23:53:19.181Z,11.73
2022-09-28T23:55:45.936Z,11.20
2022-09-28T23:58:13.112Z,11.10
